createdAt,value
2017-07-15T00:00:43.989Z,0.40
2017-07-15T00:03:17.707Z,0.40
2017-07-15T00:05:52.325Z,0.30
2017-07-15T00:08:26.756Z,0.60
2017-07-15T00:11:00.846Z,0.30
2017-07-15T00:13:34.473Z,0.53
2017-07-15T00:16:09.023Z,0.30
2017-07-15T00:18:42.611Z,0.30
2017-07-15T00:21:17.155Z,0.47
2017-07-15T00:23:51.102Z,0.30
2017-07-15T00:26:26.510Z,0.30
2017-07-15T00:29:00.421Z,0.87
2017-07-15T00:31:34.129Z,0.40
2017-07-15T00:34:07.995Z,0.40
2017-07-15T00:36:42.437Z,0.40
2017-07-15T00:39:16.262Z,0.30
2017-07-15T00:41:50.779Z,0.33
2017-07-15T00:44:24.743Z,0.50
2017-07-15T00:46:59.204Z,0.30
2017-07-15T00:49:33.686Z,0.40
2017-07-15T00:52:07.656Z,0.30
2017-07-15T00:54:42.201Z,0.30
2017-07-15T00:57:15.944Z,0.40
2017-07-15T00:59:49.654Z,0.40
2017-07-15T01:02:24.109Z,0.30
2017-07-15T01:04:58.101Z,0.30
2017-07-15T01:07:32.526Z,0.40
2017-07-15T01:10:06.479Z,0.30
2017-07-15T01:12:40.971Z,0.30
2017-07-15T01:15:14.826Z,0.30
2017-07-15T01:17:48.626Z,0.40
2017-07-15T01:20:22.453Z,0.30
2017-07-15T01:22:56.234Z,0.30
2017-07-15T01:25:29.869Z,0.30
2017-07-15T01:28:04.401Z,1.90
2017-07-15T01:30:38.886Z,0.40
2017-07-15T01:33:12.813Z,0.30
2017-07-15T01:35:46.568Z,0.37
2017-07-15T01:38:20.279Z,0.60
2017-07-15T01:40:54.818Z,0.40
2017-07-15T01:43:30.213Z,2.07
2017-07-15T01:46:04.013Z,2.17
2017-07-15T01:48:37.715Z,0.30
2017-07-15T01:51:11.352Z,0.30
2017-07-15T01:53:45.122Z,0.87
2017-07-15T01:56:19.657Z,0.30
2017-07-15T01:58:54.154Z,0.30
2017-07-15T02:01:28.155Z,0.30
2017-07-15T02:04:02.697Z,0.40
2017-07-15T02:06:36.466Z,0.30
2017-07-15T02:09:11.054Z,0.73
2017-07-15T02:11:45.510Z,0.30
2017-07-15T02:14:19.389Z,0.97
2017-07-15T02:16:53.159Z,27.07
2017-07-15T02:19:26.858Z,2.83
2017-07-15T02:22:01.246Z,0.30
2017-07-15T02:24:35.213Z,0.30
2017-07-15T02:27:08.847Z,0.30
2017-07-15T02:29:43.386Z,1.43
2017-07-15T02:32:17.818Z,0.30
2017-07-15T02:34:52.388Z,0.77
2017-07-15T02:37:26.273Z,0.30
2017-07-15T02:40:00.056Z,0.30
2017-07-15T02:42:33.678Z,0.40
2017-07-15T02:45:08.106Z,0.30
2017-07-15T02:47:42.585Z,0.30
2017-07-15T02:50:16.447Z,0.30
2017-07-15T02:52:50.122Z,0.30
2017-07-15T02:55:23.754Z,0.40
2017-07-15T02:57:58.323Z,0.30
2017-07-15T03:00:32.865Z,0.30
2017-07-15T03:03:07.474Z,0.50
2017-07-15T03:05:41.240Z,0.30
2017-07-15T03:08:15.774Z,0.37
2017-07-15T03:10:49.377Z,0.30
2017-07-15T03:13:23.974Z,0.50
2017-07-15T03:15:58.494Z,0.30
2017-07-15T03:18:32.287Z,1.47
2017-07-15T03:21:05.986Z,0.30
2017-07-15T03:23:40.521Z,0.30
2017-07-15T03:26:14.197Z,0.30
2017-07-15T03:28:48.855Z,0.30
2017-07-15T03:31:22.914Z,0.60
2017-07-15T03:33:57.472Z,0.30
2017-07-15T03:36:32.058Z,0.30
2017-07-15T03:39:06.539Z,0.30
2017-07-15T03:41:41.125Z,0.30
2017-07-15T03:44:15.530Z,0.30
2017-07-15T03:46:49.416Z,0.30
2017-07-15T03:49:23.038Z,0.30
2017-07-15T03:51:57.666Z,0.30
2017-07-15T03:54:31.254Z,0.30
2017-07-15T03:57:04.914Z,1.10
2017-07-15T03:59:38.529Z,0.30
2017-07-15T04:02:13.047Z,0.87
2017-07-15T04:04:47.836Z,0.30
2017-07-15T04:07:21.725Z,0.30
2017-07-15T04:09:56.989Z,0.30
2017-07-15T04:12:31.550Z,0.47
2017-07-15T04:15:05.431Z,0.30
2017-07-15T04:17:39.910Z,0.30
2017-07-15T04:20:14.434Z,0.30
2017-07-15T04:22:49.047Z,0.30
2017-07-15T04:25:23.543Z,0.30
2017-07-15T04:27:58.106Z,0.43
2017-07-15T04:30:31.742Z,0.30
2017-07-15T04:33:05.429Z,0.40
2017-07-15T04:35:40.012Z,0.30
2017-07-15T04:38:14.655Z,0.30
2017-07-15T04:40:50.026Z,0.30
2017-07-15T04:43:23.914Z,0.30
2017-07-15T04:45:57.685Z,0.30
2017-07-15T04:48:33.010Z,0.30
2017-07-15T04:51:06.831Z,0.40
2017-07-15T04:53:42.354Z,0.30
2017-07-15T04:56:16.750Z,0.30
2017-07-15T04:58:50.685Z,0.30
2017-07-15T05:01:25.078Z,0.30
2017-07-15T05:03:58.935Z,0.30
2017-07-15T05:06:32.596Z,0.30
2017-07-15T05:09:07.953Z,0.30
2017-07-15T05:11:41.665Z,0.37
2017-07-15T05:14:15.482Z,0.30
2017-07-15T05:16:49.111Z,0.30
2017-07-15T05:19:22.884Z,0.30
2017-07-15T05:21:57.310Z,0.30
2017-07-15T05:24:31.842Z,0.30
2017-07-15T05:27:05.665Z,0.30
2017-07-15T05:29:39.295Z,0.30
2017-07-15T05:32:14.642Z,0.30
2017-07-15T05:34:49.292Z,0.50
2017-07-15T05:37:22.886Z,0.30
2017-07-15T05:39:57.463Z,0.30
2017-07-15T05:42:31.135Z,0.40
2017-07-15T05:45:05.055Z,0.30
2017-07-15T05:47:39.448Z,0.30
2017-07-15T05:50:13.174Z,0.30
2017-07-15T05:52:47.670Z,0.30
2017-07-15T05:55:21.446Z,0.30
2017-07-15T05:57:55.974Z,0.43
2017-07-15T06:00:29.738Z,0.30
2017-07-15T06:03:04.310Z,0.37
2017-07-15T06:05:38.206Z,1.40
2017-07-15T06:08:11.971Z,0.30
2017-07-15T06:10:47.289Z,0.30
2017-07-15T06:13:21.900Z,0.40
2017-07-15T06:15:59.741Z,0.30
2017-07-15T06:18:34.306Z,0.30
2017-07-15T06:21:08.937Z,0.30
2017-07-15T06:23:43.522Z,0.30
2017-07-15T06:26:17.173Z,0.30
2017-07-15T06:28:50.788Z,0.30
2017-07-15T06:31:24.543Z,0.40
2017-07-15T06:33:59.089Z,0.30
2017-07-15T06:36:33.748Z,0.30
2017-07-15T06:39:08.350Z,0.33
2017-07-15T06:41:42.919Z,0.30
2017-07-15T06:44:16.666Z,0.30
2017-07-15T06:46:51.280Z,0.30
2017-07-15T06:49:25.800Z,0.30
2017-07-15T06:52:00.365Z,0.50
2017-07-15T06:54:33.984Z,0.30
2017-07-15T06:57:07.695Z,0.40
2017-07-15T06:59:41.337Z,0.40
2017-07-15T07:02:15.119Z,0.30
2017-07-15T07:04:50.402Z,0.30
2017-07-15T07:07:24.961Z,0.30
2017-07-15T07:09:58.759Z,0.30
2017-07-15T07:12:32.598Z,1.23
2017-07-15T07:15:06.258Z,1.80
2017-07-15T07:17:40.186Z,0.30
2017-07-15T07:20:14.710Z,0.30
2017-07-15T07:22:48.407Z,0.30
2017-07-15T07:25:22.122Z,0.50
2017-07-15T07:27:56.634Z,0.30
2017-07-15T07:30:31.211Z,0.30
2017-07-15T07:33:05.234Z,0.40
2017-07-15T07:35:39.641Z,0.70
2017-07-15T07:38:13.619Z,0.30
2017-07-15T07:40:47.234Z,0.30
2017-07-15T07:43:20.943Z,0.30
2017-07-15T07:45:54.542Z,0.30
2017-07-15T07:48:28.210Z,1.60
2017-07-15T07:51:01.849Z,0.50
2017-07-15T07:53:36.589Z,0.30
2017-07-15T07:56:10.287Z,0.40
2017-07-15T07:58:44.027Z,0.30
2017-07-15T08:01:18.545Z,0.97
2017-07-15T08:03:52.611Z,0.30
2017-07-15T08:06:26.219Z,0.43
2017-07-15T08:08:59.933Z,0.30
2017-07-15T08:11:33.697Z,0.40
2017-07-15T08:14:08.332Z,0.30
2017-07-15T08:16:42.334Z,0.30
2017-07-15T08:19:16.163Z,4.63
2017-07-15T08:21:49.866Z,0.30
2017-07-15T08:24:24.448Z,0.30
2017-07-15T08:26:58.441Z,0.30
2017-07-15T08:29:32.977Z,0.90
2017-07-15T08:32:06.694Z,0.30
2017-07-15T08:34:40.502Z,0.40
2017-07-15T08:37:14.107Z,0.30
2017-07-15T08:39:47.889Z,1.30
2017-07-15T08:42:23.206Z,0.30
2017-07-15T08:44:57.181Z,0.30
2017-07-15T08:47:30.894Z,0.77
2017-07-15T08:50:04.608Z,1.03
2017-07-15T08:52:38.267Z,0.30
2017-07-15T08:55:11.942Z,0.30
2017-07-15T08:57:45.578Z,0.40
2017-07-15T09:00:19.265Z,0.40
2017-07-15T09:02:52.939Z,0.77
2017-07-15T09:05:26.641Z,0.30
2017-07-15T09:08:00.385Z,0.30
2017-07-15T09:10:34.177Z,0.30
2017-07-15T09:13:07.879Z,0.30
2017-07-15T09:15:42.313Z,0.30
2017-07-15T09:18:16.798Z,0.30
2017-07-15T09:20:50.639Z,0.30
2017-07-15T09:23:25.030Z,0.30
2017-07-15T09:25:59.223Z,0.40
2017-07-15T09:28:34.377Z,0.30
2017-07-15T09:31:08.449Z,0.30
2017-07-15T09:33:42.818Z,0.30
2017-07-15T09:36:16.938Z,0.60
2017-07-15T09:38:51.359Z,0.30
2017-07-15T09:41:26.049Z,0.30
2017-07-15T09:43:59.640Z,0.30
2017-07-15T09:46:34.314Z,0.30
2017-07-15T09:49:08.066Z,0.53
2017-07-15T09:51:42.561Z,0.40
2017-07-15T09:54:17.151Z,1.13
2017-07-15T09:56:51.040Z,0.30
2017-07-15T09:59:24.659Z,0.40
2017-07-15T10:01:58.407Z,0.40
2017-07-15T10:04:32.891Z,0.30
2017-07-15T10:07:06.986Z,0.30
2017-07-15T10:09:40.594Z,0.30
2017-07-15T10:12:14.357Z,0.40
2017-07-15T10:14:48.830Z,0.40
2017-07-15T10:17:22.705Z,0.30
2017-07-15T10:19:57.238Z,0.30
2017-07-15T10:22:31.053Z,0.30
2017-07-15T10:25:04.769Z,0.30
2017-07-15T10:27:38.451Z,0.30
2017-07-15T10:30:12.074Z,0.30
2017-07-15T10:32:45.779Z,0.30
2017-07-15T10:35:20.095Z,0.30
2017-07-15T10:37:54.110Z,0.30
2017-07-15T10:40:28.627Z,0.30
2017-07-15T10:43:03.310Z,0.30
2017-07-15T10:45:37.299Z,0.40
2017-07-15T10:48:11.069Z,0.30
2017-07-15T10:50:45.482Z,0.30
2017-07-15T10:53:19.446Z,0.30
2017-07-15T10:55:53.813Z,0.30
2017-07-15T10:58:28.593Z,0.40
2017-07-15T11:01:02.481Z,0.30
2017-07-15T11:03:36.601Z,0.30
2017-07-15T11:06:10.919Z,0.40
2017-07-15T11:08:45.593Z,0.30
2017-07-15T11:11:19.246Z,0.40
2017-07-15T11:13:53.007Z,0.30
2017-07-15T11:16:27.457Z,0.30
2017-07-15T11:19:01.170Z,0.30
2017-07-15T11:21:35.681Z,0.30
2017-07-15T11:24:10.465Z,0.30
2017-07-15T11:26:45.014Z,0.40
2017-07-15T11:29:18.968Z,0.30
2017-07-15T11:31:53.454Z,0.30
2017-07-15T11:34:27.538Z,0.30
2017-07-15T11:37:02.105Z,0.30
2017-07-15T11:39:35.882Z,0.30
2017-07-15T11:42:09.541Z,0.30
2017-07-15T11:44:44.117Z,0.30
2017-07-15T11:47:18.539Z,0.30
2017-07-15T11:49:52.558Z,0.30
2017-07-15T11:52:26.155Z,0.30
2017-07-15T11:55:01.826Z,0.30
2017-07-15T11:57:35.537Z,0.30
2017-07-15T12:00:10.063Z,0.30
2017-07-15T12:02:43.842Z,0.40
2017-07-15T12:05:17.672Z,0.30
2017-07-15T12:07:52.167Z,0.37
2017-07-15T12:10:26.209Z,0.30
2017-07-15T12:13:00.697Z,0.30
2017-07-15T12:15:34.771Z,0.30
2017-07-15T12:18:09.285Z,0.30
2017-07-15T12:20:43.070Z,0.30
2017-07-15T12:23:18.959Z,0.37
2017-07-15T12:25:53.185Z,0.30
2017-07-15T12:28:26.806Z,0.30
2017-07-15T12:31:00.509Z,0.30
2017-07-15T12:33:35.106Z,0.70
2017-07-15T12:36:08.865Z,0.30
2017-07-15T12:38:43.453Z,0.30
2017-07-15T12:41:17.538Z,0.77
2017-07-15T12:43:51.272Z,0.30
2017-07-15T12:46:25.747Z,0.30
2017-07-15T12:48:59.604Z,0.40
2017-07-15T12:51:33.255Z,0.30
2017-07-15T12:54:07.058Z,0.30
2017-07-15T12:56:40.786Z,0.30
2017-07-15T12:59:14.434Z,0.30
2017-07-15T13:01:48.997Z,0.70
2017-07-15T13:04:22.677Z,0.20
2017-07-15T13:06:56.506Z,0.30
2017-07-15T13:09:31.799Z,1.03
2017-07-15T13:12:05.780Z,0.30
2017-07-15T13:14:40.318Z,0.30
2017-07-15T13:17:13.947Z,0.20
2017-07-15T13:19:47.671Z,0.20
2017-07-15T13:22:22.197Z,0.20
2017-07-15T13:24:56.794Z,0.20
2017-07-15T13:27:31.447Z,0.20
2017-07-15T13:30:05.306Z,0.20
2017-07-15T13:32:39.790Z,0.20
2017-07-15T13:35:14.354Z,0.20
2017-07-15T13:37:48.262Z,0.33
2017-07-15T13:40:21.995Z,0.30
2017-07-15T13:42:56.578Z,0.20
2017-07-15T13:45:31.941Z,0.20
2017-07-15T13:48:05.983Z,0.20
2017-07-15T13:50:39.583Z,0.30
2017-07-15T13:53:14.170Z,0.30
2017-07-15T13:55:48.718Z,0.30
2017-07-15T13:58:22.346Z,0.30
2017-07-15T14:00:55.946Z,0.20
2017-07-15T14:03:30.570Z,0.50
2017-07-15T14:06:04.287Z,0.20
2017-07-15T14:08:38.010Z,0.20
2017-07-15T14:11:11.661Z,0.30
2017-07-15T14:13:45.369Z,0.20
2017-07-15T14:16:18.954Z,2.77
2017-07-15T14:18:53.413Z,3.57
2017-07-15T14:21:27.225Z,3.47
2017-07-15T14:24:02.046Z,5.23
2017-07-15T14:26:35.787Z,3.37
2017-07-15T14:29:09.387Z,3.20
2017-07-15T14:31:43.014Z,4.80
2017-07-15T14:34:16.869Z,3.87
2017-07-15T14:36:51.419Z,3.10
2017-07-15T14:39:25.077Z,4.13
2017-07-15T14:41:59.602Z,2.00
2017-07-15T14:44:34.173Z,3.20
2017-07-15T14:47:09.426Z,4.97
2017-07-15T14:49:43.514Z,4.87
2017-07-15T14:52:18.090Z,3.57
2017-07-15T14:54:52.535Z,1.90
2017-07-15T14:57:27.020Z,4.67
2017-07-15T15:00:01.063Z,3.37
2017-07-15T15:02:35.527Z,1.83
2017-07-15T15:05:09.183Z,5.50
2017-07-15T15:07:42.791Z,3.90
2017-07-15T15:10:17.358Z,2.20
2017-07-15T15:12:51.170Z,2.30
2017-07-15T15:15:24.841Z,3.83
2017-07-15T15:17:59.289Z,1.90
2017-07-15T15:20:33.387Z,2.13
2017-07-15T15:23:07.158Z,2.70
2017-07-15T15:25:41.643Z,1.90
2017-07-15T15:28:15.466Z,1.83
2017-07-15T15:30:49.998Z,2.37
2017-07-15T15:33:24.689Z,2.03
2017-07-15T15:35:58.761Z,2.20
2017-07-15T15:38:32.474Z,2.53
2017-07-15T15:41:06.122Z,3.07
2017-07-15T15:43:39.858Z,2.43
2017-07-15T15:46:14.755Z,2.70
2017-07-15T15:48:48.414Z,2.13
2017-07-15T15:51:22.229Z,2.07
2017-07-15T15:53:55.846Z,1.60
2017-07-15T15:56:30.616Z,4.27
2017-07-15T15:59:04.411Z,2.13
2017-07-15T16:01:38.863Z,2.10
2017-07-15T16:04:12.711Z,1.40
2017-07-15T16:06:46.478Z,2.33
2017-07-15T16:09:20.089Z,3.40
2017-07-15T16:11:54.702Z,1.90
2017-07-15T16:14:28.606Z,2.30
2017-07-15T16:17:02.373Z,3.03
2017-07-15T16:19:36.008Z,1.50
2017-07-15T16:22:09.910Z,4.47
2017-07-15T16:24:44.598Z,2.83
2017-07-15T16:27:19.257Z,2.90
2017-07-15T16:29:52.969Z,1.00
2017-07-15T16:32:26.766Z,1.63
2017-07-15T16:35:01.306Z,3.20
2017-07-15T16:37:34.994Z,3.07
2017-07-15T16:40:09.606Z,1.87
2017-07-15T16:42:44.258Z,2.07
2017-07-15T16:45:18.270Z,2.43
2017-07-15T16:47:52.030Z,6.20
2017-07-15T16:50:27.374Z,3.73
2017-07-15T16:53:02.154Z,1.73
2017-07-15T16:55:36.101Z,1.83
2017-07-15T16:58:09.786Z,2.43
2017-07-15T17:00:44.234Z,4.70
2017-07-15T17:03:18.170Z,0.90
2017-07-15T17:05:52.701Z,2.50
2017-07-15T17:08:26.391Z,1.67
2017-07-15T17:11:00.197Z,2.73
2017-07-15T17:13:33.894Z,2.53
2017-07-15T17:16:08.303Z,2.70
2017-07-15T17:18:42.262Z,2.33
2017-07-15T17:21:15.926Z,1.37
2017-07-15T17:23:50.538Z,3.27
2017-07-15T17:26:24.273Z,5.63
2017-07-15T17:28:59.620Z,3.93
2017-07-15T17:31:33.628Z,2.33
2017-07-15T17:34:07.449Z,1.60
2017-07-15T17:36:41.929Z,1.43
2017-07-15T17:39:16.045Z,1.90
2017-07-15T17:41:50.494Z,3.80
2017-07-15T17:44:25.845Z,3.13
2017-07-15T17:47:00.408Z,2.77
2017-07-15T17:49:34.490Z,2.27
2017-07-15T17:52:08.130Z,1.23
2017-07-15T17:54:42.847Z,1.80
2017-07-15T17:57:16.539Z,3.47
2017-07-15T17:59:50.249Z,2.43
2017-07-15T18:02:23.962Z,2.23
2017-07-15T18:04:57.776Z,5.30
2017-07-15T18:07:33.015Z,6.20
2017-07-15T18:10:07.013Z,3.97
2017-07-15T18:12:41.530Z,4.10
2017-07-15T18:15:15.292Z,6.20
2017-07-15T18:17:49.677Z,5.63
2017-07-15T18:20:23.761Z,8.83
2017-07-15T18:22:58.214Z,3.60
2017-07-15T18:25:33.057Z,2.97
2017-07-15T18:28:07.562Z,2.87
2017-07-15T18:30:41.482Z,2.53
2017-07-15T18:33:16.012Z,1.70
2017-07-15T18:35:49.881Z,2.90
2017-07-15T18:38:23.567Z,1.53
2017-07-15T18:40:57.353Z,2.10
2017-07-15T18:43:31.871Z,2.40
2017-07-15T18:46:06.415Z,1.80
2017-07-15T18:48:40.303Z,1.67
2017-07-15T18:51:14.046Z,1.87
2017-07-15T18:53:47.635Z,2.37
2017-07-15T18:56:22.330Z,1.73
2017-07-15T18:58:56.024Z,2.17
2017-07-15T19:01:29.735Z,2.30
2017-07-15T19:04:04.225Z,3.00
2017-07-15T19:06:38.110Z,5.40
2017-07-15T19:09:11.736Z,4.40
2017-07-15T19:11:45.342Z,2.77
2017-07-15T19:14:19.891Z,3.30
2017-07-15T19:16:54.311Z,3.10
2017-07-15T19:19:28.323Z,4.53
2017-07-15T19:22:01.970Z,3.23
2017-07-15T19:24:36.320Z,3.10
2017-07-15T19:27:11.278Z,3.30
2017-07-15T19:29:45.080Z,2.90
2017-07-15T19:32:20.451Z,6.77
2017-07-15T19:34:54.252Z,2.30
2017-07-15T19:37:28.948Z,2.83
2017-07-15T19:40:02.767Z,4.70
2017-07-15T19:42:37.298Z,2.90
2017-07-15T19:45:11.206Z,5.43
2017-07-15T19:47:44.902Z,3.37
2017-07-15T19:50:20.167Z,3.57
2017-07-15T19:52:54.188Z,3.60
2017-07-15T19:55:28.716Z,2.60
2017-07-15T19:58:02.494Z,4.10
2017-07-15T20:00:36.147Z,5.47
2017-07-15T20:03:09.760Z,4.03
2017-07-15T20:05:45.102Z,4.07
2017-07-15T20:08:19.860Z,3.33
2017-07-15T20:10:53.749Z,2.77
2017-07-15T20:13:27.487Z,4.90
2017-07-15T20:16:01.093Z,3.43
2017-07-15T20:18:34.960Z,6.27
2017-07-15T20:21:09.461Z,3.47
2017-07-15T20:23:44.402Z,2.50
2017-07-15T20:26:18.125Z,3.10
2017-07-15T20:28:53.043Z,9.03
2017-07-15T20:31:27.592Z,5.40
2017-07-15T20:34:01.342Z,2.80
2017-07-15T20:36:40.757Z,6.00
2017-07-15T20:39:14.782Z,3.93
2017-07-15T20:41:49.378Z,4.70
2017-07-15T20:44:23.242Z,5.90
2017-07-15T20:46:57.777Z,4.97
2017-07-15T20:49:31.532Z,3.90
2017-07-15T20:52:21.001Z,4.87
2017-07-15T20:54:56.607Z,5.67
2017-07-15T20:57:30.261Z,3.53
2017-07-15T21:00:04.900Z,5.93
2017-07-15T21:02:38.543Z,3.43
2017-07-15T21:05:13.145Z,6.63
2017-07-15T21:07:47.666Z,6.27
2017-07-15T21:10:21.568Z,3.70
2017-07-15T21:12:55.321Z,6.13
2017-07-15T21:15:29.823Z,4.33
2017-07-15T21:18:03.745Z,3.27
2017-07-15T21:20:37.550Z,3.67
2017-07-15T21:23:11.933Z,3.37
2017-07-15T21:25:47.733Z,3.40
2017-07-15T21:28:21.506Z,3.23
2017-07-15T21:30:55.195Z,3.83
2017-07-15T21:33:28.841Z,4.20
2017-07-15T21:36:02.678Z,6.00
2017-07-15T21:38:36.397Z,3.60
2017-07-15T21:41:11.070Z,8.23
2017-07-15T21:43:45.762Z,3.57
2017-07-15T21:46:20.658Z,4.63
2017-07-15T21:48:54.336Z,4.50
2017-07-15T21:51:28.018Z,4.10
2017-07-15T21:54:01.714Z,4.07
2017-07-15T21:56:36.551Z,3.80
2017-07-15T21:59:10.278Z,4.77
2017-07-15T22:01:44.894Z,3.80
2017-07-15T22:04:18.526Z,3.77
2017-07-15T22:06:52.338Z,3.70
2017-07-15T22:09:25.966Z,3.90
2017-07-15T22:12:00.358Z,4.23
2017-07-15T22:14:34.294Z,4.73
2017-07-15T22:17:08.866Z,5.50
2017-07-15T22:19:43.547Z,3.63
2017-07-15T22:22:17.627Z,4.23
2017-07-15T22:24:52.074Z,4.53
2017-07-15T22:27:27.058Z,4.20
2017-07-15T22:30:01.624Z,4.07
2017-07-15T22:32:35.747Z,5.33
2017-07-15T22:35:09.396Z,3.90
2017-07-15T22:37:43.902Z,3.70
2017-07-15T22:40:18.022Z,5.20
2017-07-15T22:42:53.363Z,5.70
2017-07-15T22:45:27.082Z,4.40
2017-07-15T22:48:00.853Z,4.33
2017-07-15T22:50:35.352Z,4.13
2017-07-15T22:53:09.330Z,4.80
2017-07-15T22:55:43.006Z,4.30
2017-07-15T22:58:18.578Z,4.40
2017-07-15T23:00:52.356Z,4.33
2017-07-15T23:03:27.038Z,4.67
2017-07-15T23:06:00.714Z,4.30
2017-07-15T23:08:34.429Z,5.80
2017-07-15T23:11:08.994Z,3.93
2017-07-15T23:13:43.530Z,4.27
2017-07-15T23:16:17.254Z,4.13
2017-07-15T23:18:51.795Z,5.00
2017-07-15T23:21:26.473Z,4.83
2017-07-15T23:24:01.186Z,6.10
2017-07-15T23:26:34.951Z,4.20
2017-07-15T23:29:08.612Z,4.60
2017-07-15T23:31:42.266Z,4.67
2017-07-15T23:34:16.761Z,4.27
2017-07-15T23:36:51.434Z,4.23
2017-07-15T23:39:26.223Z,6.83
2017-07-15T23:42:00.001Z,5.47
2017-07-15T23:44:33.690Z,4.83
2017-07-15T23:47:07.370Z,5.10
2017-07-15T23:49:41.978Z,7.13
2017-07-15T23:52:16.535Z,4.63
2017-07-15T23:54:51.509Z,4.47
2017-07-15T23:57:26.101Z,6.10
